Terminal Aerodrome Forecast
Issued by NWS Wilmington, NC

Home | Current Version | Previous Version | Text Only | Print | Product List | Glossary On
Versions: 1 2 3 4 5 6 7 8 9 10 11 12
220
FTUS42 KILM 231720
TAFILM
TAF
KILM 231720Z 2318/2418 10010KT P6SM BKN050
     FM232100 11003KT P6SM SCT045
     FM240000 VRB03KT P6SM FEW030
      TEMPO 2409/2412 5SM BR
     FM241300 09005KT P6SM SKC=

USA.gov is the U.S. government's official web portal to all federal, state and local government web resources and services.